Time;durP1;ratioP1;P1;durP2;ratioP2;P2;SDS_P1;SDS_P2;PMS_P1;PMS_P2;Temp;Humidity;BMP_temperature;BMP_pressure;BME280_temperature;BME280_humidity;BME280_pressure;Samples;Min_cycle;Max_cycle;Signal;HPM_P1;HPM_P2
2022/09/16 00:00:17;;;;;;;2.50;1.40;;;13.20;99.90;;;;;;5035141;28;20278;-74
2022/09/16 00:02:43;;;;;;;1.63;0.90;;;13.10;99.90;;;;;;5034755;28;20894;-74
2022/09/16 00:05:09;;;;;;;1.20;0.70;;;13.10;99.90;;;;;;5033201;28;20433;-74
2022/09/16 00:07:34;;;;;;;3.53;0.90;;;13.10;99.90;;;;;;5034490;28;20225;-74
2022/09/16 00:10:00;;;;;;;1.23;0.80;;;13.00;99.90;;;;;;5034649;28;20291;-74
2022/09/16 00:12:26;;;;;;;1.20;0.90;;;13.00;99.90;;;;;;5034366;28;20406;-74
2022/09/16 00:14:53;;;;;;;1.30;1.10;;;13.00;99.90;;;;;;5034287;28;20432;-74
2022/09/16 00:17:19;;;;;;;2.13;1.17;;;13.10;99.90;;;;;;5034487;28;20171;-74
2022/09/16 00:19:45;;;;;;;2.43;0.90;;;13.10;99.90;;;;;;5033211;28;20460;-74
2022/09/16 00:22:11;;;;;;;2.80;1.00;;;13.10;99.90;;;;;;5034324;28;20810;-75
2022/09/16 00:24:37;;;;;;;3.30;1.20;;;13.20;99.90;;;;;;5033916;28;20192;-74
2022/09/16 00:27:02;;;;;;;2.50;0.80;;;13.20;99.90;;;;;;5034377;28;20553;-74
2022/09/16 00:29:28;;;;;;;3.90;0.70;;;13.30;99.90;;;;;;5033932;28;20221;-75
2022/09/16 00:31:54;;;;;;;3.00;0.80;;;13.30;99.90;;;;;;5034106;28;20190;-74
2022/09/16 00:34:19;;;;;;;4.00;2.00;;;13.30;99.90;;;;;;5033589;28;20170;-74
2022/09/16 00:36:45;;;;;;;1.70;1.07;;;13.30;99.90;;;;;;5033952;28;20174;-74
2022/09/16 00:39:10;;;;;;;1.23;0.80;;;13.30;99.90;;;;;;5033948;28;20172;-74
2022/09/16 00:41:36;;;;;;;1.17;0.87;;;13.30;99.90;;;;;;5034086;28;20176;-74
2022/09/16 00:44:05;;;;;;;1.50;1.00;;;13.40;99.90;;;;;;5033469;28;20167;-74
2022/09/16 00:46:33;;;;;;;2.67;1.20;;;13.40;99.90;;;;;;5032518;28;20531;-74
2022/09/16 00:49:17;;;;;;;6.17;1.67;;;13.30;99.90;;;;;;5033554;28;20971;-75
2022/09/16 00:51:46;;;;;;;2.43;1.53;;;13.40;99.90;;;;;;5033444;28;20437;-74
2022/09/16 00:54:13;;;;;;;2.87;1.43;;;13.30;99.90;;;;;;5033634;28;20394;-76
2022/09/16 00:56:42;;;;;;;1.80;0.80;;;13.30;99.90;;;;;;5033778;28;20430;-75
2022/09/16 00:59:14;;;;;;;2.30;0.97;;;13.40;99.90;;;;;;5033868;28;20425;-74
2022/09/16 01:01:43;;;;;;;2.60;1.50;;;13.40;99.90;;;;;;5033828;28;20454;-74
2022/09/16 01:04:14;;;;;;;4.10;1.37;;;13.30;99.90;;;;;;5033497;28;20403;-75
2022/09/16 01:06:40;;;;;;;6.90;1.93;;;13.30;99.90;;;;;;5033783;28;20983;-74
2022/09/16 01:09:06;;;;;;;1.30;0.90;;;13.30;99.90;;;;;;5033795;28;20442;-74
2022/09/16 01:11:31;;;;;;;2.33;0.97;;;13.30;99.90;;;;;;5033943;28;20195;-73
2022/09/16 01:14:51;;;;;;;4.30;1.37;;;13.30;99.90;;;;;;5033795;28;20526;-74
2022/09/16 01:17:03;;;;;;;1.10;1.00;;;13.30;99.90;;;;;;5033081;28;20780;-74
2022/09/16 01:20:07;;;;;;;2.03;0.90;;;13.40;99.90;;;;;;5033456;28;20409;-75
2022/09/16 01:22:42;;;;;;;7.47;1.40;;;13.30;99.90;;;;;;5031810;28;20464;-75
2022/09/16 01:25:20;;;;;;;2.53;1.10;;;13.30;99.90;;;;;;5033082;28;20480;-75
2022/09/16 01:28:07;;;;;;;3.00;1.60;;;13.30;99.90;;;;;;5033595;28;20398;-75
2022/09/16 01:30:51;;;;;;;1.20;0.80;;;13.30;99.90;;;;;;5032061;28;20446;-75
2022/09/16 01:33:55;;;;;;;1.67;1.03;;;13.30;99.90;;;;;;5033284;28;20383;-75
2022/09/16 01:36:39;;;;;;;2.00;1.20;;;13.40;99.90;;;;;;5010981;28;20446;-75
2022/09/16 01:39:19;;;;;;;1.97;1.50;;;13.40;99.90;;;;;;4994959;28;20439;-75
2022/09/16 01:41:54;;;;;;;1.93;1.07;;;13.50;99.90;;;;;;5026244;28;20424;-74
2022/09/16 01:44:38;;;;;;;4.83;2.63;;;13.40;99.90;;;;;;5033029;28;20576;-74
2022/09/16 01:47:17;;;;;;;1.60;1.10;;;13.50;99.90;;;;;;5032831;28;20402;-73
2022/09/16 01:49:50;;;;;;;2.67;1.23;;;13.50;99.90;;;;;;5032751;28;20809;-74
2022/09/16 01:52:39;;;;;;;2.60;1.47;;;13.60;99.90;;;;;;5032631;28;20413;-74
2022/09/16 01:55:21;;;;;;;2.00;1.20;;;13.60;99.90;;;;;;5032453;28;20564;-73
2022/09/16 01:57:54;;;;;;;2.83;1.70;;;13.60;99.90;;;;;;5032466;28;20429;-72
2022/09/16 02:00:20;;;;;;;10.60;6.10;;;13.60;99.90;;;;;;5032800;28;20748;-73
2022/09/16 02:02:52;;;;;;;3.00;1.53;;;13.60;99.90;;;;;;5031441;28;20421;-74
2022/09/16 02:05:25;;;;;;;6.70;2.20;;;13.60;99.90;;;;;;5032754;28;20644;-74
2022/09/16 02:07:58;;;;;;;3.10;1.20;;;13.70;99.90;;;;;;5031851;28;20946;-74
2022/09/16 02:10:34;;;;;;;2.60;1.40;;;13.70;99.90;;;;;;5032689;28;20453;-74
2022/09/16 02:13:07;;;;;;;1.53;1.03;;;13.70;99.90;;;;;;5032464;28;20398;-74
2022/09/16 02:15:33;;;;;;;4.80;2.07;;;13.70;99.90;;;;;;5032171;28;20865;-75
2022/09/16 02:18:13;;;;;;;1.73;1.20;;;13.70;99.90;;;;;;5032156;28;20903;-74
2022/09/16 02:20:43;;;;;;;2.63;1.53;;;13.70;99.90;;;;;;5031109;28;20418;-73
2022/09/16 02:23:13;;;;;;;1.73;1.13;;;13.60;99.90;;;;;;5032272;28;20395;-74
2022/09/16 02:25:41;;;;;;;1.80;1.40;;;13.60;99.90;;;;;;5032269;28;20453;-74
2022/09/16 02:28:11;;;;;;;2.13;1.30;;;13.60;99.90;;;;;;5032771;28;20976;-74
2022/09/16 02:30:41;;;;;;;2.80;1.17;;;13.60;99.90;;;;;;5032223;28;20495;-74
2022/09/16 02:33:09;;;;;;;2.47;1.70;;;13.60;99.90;;;;;;5032349;28;20906;-74
2022/09/16 02:35:37;;;;;;;4.40;2.07;;;13.70;99.90;;;;;;5030562;28;20521;-74
2022/09/16 02:38:11;;;;;;;1.97;1.27;;;13.70;99.90;;;;;;5032305;28;20399;-74
2022/09/16 02:40:44;;;;;;;7.50;2.43;;;13.70;99.90;;;;;;5032070;28;20919;-74
2022/09/16 02:43:10;;;;;;;2.10;1.53;;;13.70;99.90;;;;;;5031897;28;20418;-74
2022/09/16 02:45:50;;;;;;;3.70;1.40;;;13.70;99.90;;;;;;5031872;28;20434;-74
2022/09/16 02:48:31;;;;;;;1.60;1.20;;;13.70;99.90;;;;;;5032127;28;20167;-74
2022/09/16 02:51:00;;;;;;;8.13;3.53;;;13.70;99.90;;;;;;5032006;28;20421;-74
2022/09/16 02:53:53;;;;;;;5.93;3.17;;;13.70;99.90;;;;;;5032257;28;20399;-74
2022/09/16 02:56:34;;;;;;;3.83;1.40;;;13.70;99.90;;;;;;5031664;28;20416;-74
2022/09/16 02:59:01;;;;;;;2.50;1.90;;;13.70;99.90;;;;;;5031836;28;20406;-73
2022/09/16 03:01:29;;;;;;;6.10;3.80;;;13.70;99.90;;;;;;5031715;28;20402;-73
2022/09/16 03:03:55;;;;;;;12.03;8.10;;;13.70;99.90;;;;;;5031791;28;20403;-74
2022/09/16 03:06:27;;;;;;;13.30;6.80;;;13.70;99.90;;;;;;5031377;28;20457;-75
2022/09/16 03:08:56;;;;;;;2.27;2.07;;;13.70;99.90;;;;;;5031763;28;20986;-74
2022/09/16 03:11:51;;;;;;;4.20;1.90;;;13.70;99.90;;;;;;5035736;28;20440;-74
2022/09/16 03:14:54;;;;;;;2.60;1.00;;;13.70;99.90;;;;;;5035218;28;20413;-73
2022/09/16 03:17:34;;;;;;;3.33;1.47;;;13.70;99.90;;;;;;5034115;28;21100;-74
2022/09/16 03:20:18;;;;;;;3.40;2.13;;;13.60;99.90;;;;;;5035342;28;20463;-75
2022/09/16 03:22:43;;;;;;;3.40;1.40;;;13.50;99.90;;;;;;5035469;28;20402;-74
2022/09/16 03:25:21;;;;;;;1.53;1.30;;;13.50;99.90;;;;;;5034891;28;20517;-73
2022/09/16 03:28:01;;;;;;;2.23;1.60;;;13.50;99.90;;;;;;5035317;28;20258;-74
2022/09/16 03:30:31;;;;;;;1.97;1.30;;;13.50;99.90;;;;;;5035273;28;20938;-75
2022/09/16 03:33:03;;;;;;;2.77;2.07;;;13.50;99.90;;;;;;5035451;28;20896;-75
2022/09/16 03:35:37;;;;;;;2.13;1.40;;;13.40;99.90;;;;;;5034839;28;20461;-75
2022/09/16 03:38:05;;;;;;;8.30;2.53;;;13.40;99.90;;;;;;5035181;28;20878;-74
2022/09/16 03:40:32;;;;;;;2.80;1.43;;;13.40;99.90;;;;;;5035155;28;20422;-75
2022/09/16 03:42:58;;;;;;;3.17;1.67;;;13.30;99.90;;;;;;5035185;28;20402;-73
2022/09/16 03:45:24;;;;;;;6.90;2.17;;;13.40;99.90;;;;;;5034671;28;20484;-73
2022/09/16 03:47:51;;;;;;;4.07;1.70;;;13.30;99.90;;;;;;5034913;28;20167;-75
2022/09/16 03:50:17;;;;;;;7.97;2.33;;;13.30;99.90;;;;;;5035015;28;20204;-75
2022/09/16 03:52:43;;;;;;;2.47;1.67;;;13.30;99.90;;;;;;5035065;28;20425;-74
2022/09/16 03:55:09;;;;;;;4.27;1.70;;;13.30;99.90;;;;;;5033236;28;20426;-75
2022/09/16 03:57:35;;;;;;;3.80;1.90;;;13.30;99.90;;;;;;5035397;28;20172;-75
2022/09/16 04:00:02;;;;;;;3.83;2.03;;;13.20;99.90;;;;;;5034932;28;20952;-74
2022/09/16 04:02:27;;;;;;;2.10;1.77;;;13.20;99.90;;;;;;5033316;28;20176;-75
2022/09/16 04:04:53;;;;;;;4.83;1.87;;;13.20;99.90;;;;;;5034610;28;20855;-76
2022/09/16 04:07:18;;;;;;;2.80;1.40;;;13.30;99.90;;;;;;5034555;28;20172;-75
2022/09/16 04:09:44;;;;;;;1.63;1.30;;;13.20;99.90;;;;;;5034575;28;20199;-74
2022/09/16 04:12:09;;;;;;;4.23;1.87;;;13.20;99.90;;;;;;5034443;28;20160;-73
2022/09/16 04:14:35;;;;;;;5.77;3.87;;;13.20;99.90;;;;;;5034154;28;20672;-74
2022/09/16 04:17:01;;;;;;;3.27;2.30;;;13.20;99.90;;;;;;5034138;28;20170;-74
2022/09/16 04:19:27;;;;;;;1.70;1.30;;;13.20;99.90;;;;;;5033762;28;20167;-74
2022/09/16 04:21:52;;;;;;;1.97;1.10;;;13.20;99.90;;;;;;5033749;28;20921;-74
2022/09/16 04:24:18;;;;;;;8.20;1.33;;;13.10;99.90;;;;;;5033737;28;20668;-74
2022/09/16 04:26:44;;;;;;;11.03;1.97;;;13.10;99.90;;;;;;5034437;28;20236;-75
2022/09/16 04:29:10;;;;;;;1.80;1.17;;;13.00;99.90;;;;;;5034242;28;20215;-75
2022/09/16 04:31:36;;;;;;;4.63;1.40;;;13.00;99.90;;;;;;5034312;28;20411;-76
2022/09/16 04:34:02;;;;;;;2.37;1.57;;;12.90;99.90;;;;;;5035548;28;20399;-77
2022/09/16 04:36:28;;;;;;;3.17;1.20;;;12.80;99.90;;;;;;5034711;28;20198;-76
2022/09/16 04:38:54;;;;;;;4.30;1.53;;;12.70;99.90;;;;;;5034046;28;20501;-75
2022/09/16 04:41:22;;;;;;;3.27;1.60;;;12.60;99.90;;;;;;5032619;28;20182;-76
2022/09/16 04:43:54;;;;;;;2.43;1.67;;;12.60;99.90;;;;;;5032870;28;20258;-75
2022/09/16 04:46:20;;;;;;;2.43;1.23;;;12.50;99.90;;;;;;5032445;28;20431;-74
2022/09/16 04:48:50;;;;;;;3.27;1.20;;;12.40;99.90;;;;;;5032511;28;20482;-75
2022/09/16 04:51:16;;;;;;;5.27;1.77;;;12.40;99.90;;;;;;5033616;28;20183;-74
2022/09/16 04:53:42;;;;;;;1.80;1.70;;;12.30;99.90;;;;;;5033666;28;20431;-75
2022/09/16 04:56:17;;;;;;;2.17;1.57;;;12.30;99.90;;;;;;5033179;28;20430;-75
2022/09/16 04:58:44;;;;;;;3.53;1.70;;;12.30;99.90;;;;;;5033685;28;20394;-75
2022/09/16 05:01:13;;;;;;;3.20;1.53;;;12.40;99.90;;;;;;5034056;28;20826;-75
2022/09/16 05:03:44;;;;;;;2.50;1.73;;;12.40;99.90;;;;;;5033546;28;20406;-75
2022/09/16 05:06:18;;;;;;;3.77;1.87;;;12.50;99.90;;;;;;5032275;28;20461;-75
2022/09/16 05:08:43;;;;;;;5.97;2.13;;;12.50;99.90;;;;;;5033423;28;20399;-75
2022/09/16 05:11:12;;;;;;;5.67;1.83;;;12.60;99.90;;;;;;5033282;28;20413;-75
2022/09/16 05:13:38;;;;;;;4.73;1.20;;;12.60;99.90;;;;;;5033141;28;20294;-75
2022/09/16 05:16:09;;;;;;;3.73;1.07;;;12.70;99.90;;;;;;5032936;28;20430;-74
2022/09/16 05:18:36;;;;;;;1.90;1.20;;;12.70;99.90;;;;;;5033066;28;20467;-74
2022/09/16 05:21:04;;;;;;;3.37;1.10;;;12.80;99.90;;;;;;5031865;28;20406;-75
2022/09/16 05:23:31;;;;;;;3.10;1.60;;;12.90;99.90;;;;;;5033086;28;21038;-75
2022/09/16 05:26:06;;;;;;;3.37;1.33;;;12.90;99.90;;;;;;5032775;28;20459;-75
2022/09/16 05:28:33;;;;;;;7.53;1.47;;;13.00;99.90;;;;;;5032921;28;20429;-76
2022/09/16 05:31:12;;;;;;;1.37;1.10;;;13.00;99.90;;;;;;5032580;28;20547;-75
2022/09/16 05:33:39;;;;;;;3.43;0.97;;;13.00;99.90;;;;;;5031570;28;20406;-75
2022/09/16 05:36:16;;;;;;;1.93;1.37;;;13.10;99.90;;;;;;5032475;28;20422;-75
2022/09/16 05:38:42;;;;;;;2.23;1.20;;;13.10;99.90;;;;;;5032830;28;20910;-75
2022/09/16 05:41:08;;;;;;;1.40;1.10;;;13.10;99.90;;;;;;5032706;28;20481;-75
2022/09/16 05:43:34;;;;;;;5.23;1.60;;;13.10;99.90;;;;;;5032655;28;20413;-75
2022/09/16 05:46:01;;;;;;;1.87;1.00;;;13.20;99.90;;;;;;5032370;28;20510;-75
2022/09/16 05:48:27;;;;;;;1.63;0.93;;;13.20;99.90;;;;;;5032657;28;20415;-76
2022/09/16 05:50:59;;;;;;;3.07;1.10;;;13.30;99.90;;;;;;5032397;28;20458;-75
2022/09/16 05:53:26;;;;;;;2.53;1.50;;;13.30;99.90;;;;;;5032554;28;20394;-76
2022/09/16 05:55:59;;;;;;;5.70;3.03;;;13.30;99.90;;;;;;5030963;28;20437;-75
2022/09/16 05:58:26;;;;;;;4.47;1.60;;;13.40;99.90;;;;;;5032578;28;20773;-73
2022/09/16 06:00:56;;;;;;;11.37;6.10;;;13.40;99.90;;;;;;5032591;28;20438;-74
2022/09/16 06:03:22;;;;;;;2.43;1.33;;;13.50;99.90;;;;;;5032457;28;20899;-75
2022/09/16 06:05:47;;;;;;;2.63;1.40;;;13.60;99.90;;;;;;5030704;28;20430;-74
2022/09/16 06:08:13;;;;;;;1.83;1.63;;;13.70;99.90;;;;;;5032367;28;20190;-74
2022/09/16 06:10:40;;;;;;;2.40;1.20;;;13.80;99.90;;;;;;5032105;28;20538;-74
2022/09/16 06:13:05;;;;;;;1.70;1.20;;;13.80;99.90;;;;;;5035859;28;20188;-78
2022/09/16 06:15:31;;;;;;;3.60;1.40;;;13.80;99.90;;;;;;5043360;28;20426;-78
2022/09/16 06:17:57;;;;;;;1.80;1.10;;;13.80;99.90;;;;;;5042764;28;20164;-78
2022/09/16 06:20:23;;;;;;;1.93;0.97;;;13.80;99.90;;;;;;5036136;28;20230;-74
2022/09/16 06:22:48;;;;;;;3.10;1.23;;;13.80;99.90;;;;;;5032207;28;20828;-74
2022/09/16 06:25:14;;;;;;;2.63;2.03;;;13.90;99.90;;;;;;5031711;28;21008;-75
2022/09/16 06:27:39;;;;;;;5.20;2.60;;;14.00;99.90;;;;;;5032052;28;20841;-74
2022/09/16 06:30:05;;;;;;;4.67;2.00;;;14.00;99.90;;;;;;5031900;28;20222;-74
2022/09/16 06:32:31;;;;;;;3.80;1.90;;;14.10;99.90;;;;;;5032095;28;20167;-73
2022/09/16 06:34:56;;;;;;;4.60;1.87;;;14.20;99.90;;;;;;5031913;28;20445;-75
2022/09/16 06:37:22;;;;;;;1.10;0.83;;;14.30;99.90;;;;;;5031892;28;20175;-74
2022/09/16 06:39:48;;;;;;;1.70;1.00;;;14.40;99.90;;;;;;5031978;28;20198;-74
2022/09/16 06:42:13;;;;;;;1.30;1.10;;;14.40;99.90;;;;;;5032048;28;20218;-74
2022/09/16 06:44:40;;;;;;;1.40;1.20;;;14.50;99.90;;;;;;5034545;28;20214;-75
2022/09/16 06:47:05;;;;;;;5.07;1.43;;;14.50;99.90;;;;;;5036108;28;20306;-75
2022/09/16 06:49:31;;;;;;;1.60;1.00;;;14.60;99.90;;;;;;5035914;28;20540;-75
2022/09/16 06:51:56;;;;;;;1.20;0.77;;;14.60;99.90;;;;;;5035866;28;20183;-75
2022/09/16 06:54:22;;;;;;;4.80;1.13;;;14.60;99.90;;;;;;5035829;28;20167;-76
2022/09/16 06:56:48;;;;;;;2.53;1.00;;;14.60;99.90;;;;;;5036069;28;20164;-74
2022/09/16 06:59:14;;;;;;;6.83;1.23;;;14.60;99.90;;;;;;5034383;28;20527;-74
2022/09/16 07:01:40;;;;;;;5.50;1.53;;;14.60;99.90;;;;;;5035565;28;20441;-74
2022/09/16 07:04:14;;;;;;;2.30;1.10;;;14.70;99.90;;;;;;5035666;28;20176;-75
2022/09/16 07:06:40;;;;;;;2.20;1.20;;;14.80;99.90;;;;;;5034325;28;20836;-75
2022/09/16 07:09:06;;;;;;;1.30;1.17;;;15.00;99.90;;;;;;5035299;28;20449;-75
2022/09/16 07:11:31;;;;;;;1.70;0.90;;;15.10;99.90;;;;;;5035580;28;20159;-75
2022/09/16 07:13:59;;;;;;;1.53;1.20;;;15.40;99.90;;;;;;5034257;28;20175;-75
2022/09/16 07:16:25;;;;;;;1.57;1.00;;;15.70;99.90;;;;;;5035277;28;20241;-75
2022/09/16 07:18:55;;;;;;;1.93;1.20;;;15.90;99.90;;;;;;5035423;28;20406;-75
2022/09/16 07:21:24;;;;;;;1.63;1.13;;;15.90;99.90;;;;;;5034217;28;20966;-75
2022/09/16 07:23:50;;;;;;;3.43;1.90;;;16.00;99.90;;;;;;5035445;28;20411;-75
2022/09/16 07:26:21;;;;;;;3.37;1.30;;;16.10;99.90;;;;;;5035053;28;20457;-75
2022/09/16 07:28:48;;;;;;;2.63;2.17;;;16.00;99.90;;;;;;5034989;28;20494;-75
2022/09/16 07:31:16;;;;;;;3.53;1.20;;;16.10;99.90;;;;;;5035181;28;20978;-73
2022/09/16 07:33:45;;;;;;;7.00;1.73;;;16.00;99.90;;;;;;5035111;28;20902;-74
2022/09/16 07:36:14;;;;;;;1.47;0.87;;;16.00;99.90;;;;;;5034735;28;20422;-74
2022/09/16 07:38:40;;;;;;;3.70;1.40;;;16.00;99.90;;;;;;5035167;28;20417;-75
2022/09/16 07:41:13;;;;;;;2.13;0.70;;;16.10;99.90;;;;;;5035056;28;20398;-74
2022/09/16 07:43:40;;;;;;;2.50;1.10;;;16.30;99.90;;;;;;5033751;28;20179;-75
2022/09/16 07:46:07;;;;;;;1.43;0.97;;;16.50;99.90;;;;;;5034659;28;20457;-74
2022/09/16 07:48:33;;;;;;;1.50;1.40;;;16.80;99.90;;;;;;5034949;28;20493;-74
2022/09/16 07:51:01;;;;;;;1.60;0.70;;;17.10;99.90;;;;;;5034714;28;20454;-75
2022/09/16 07:53:28;;;;;;;2.33;1.20;;;17.40;99.90;;;;;;5034919;28;20460;-74
2022/09/16 07:55:54;;;;;;;2.17;1.17;;;17.60;99.90;;;;;;5034144;28;20430;-75
2022/09/16 07:58:20;;;;;;;1.83;0.90;;;17.60;99.90;;;;;;5034936;28;20805;-74
2022/09/16 08:00:48;;;;;;;2.17;1.40;;;17.80;99.90;;;;;;5034913;28;20437;-76
2022/09/16 08:03:14;;;;;;;6.20;1.07;;;17.80;99.90;;;;;;5034764;28;20835;-74
2022/09/16 08:05:40;;;;;;;2.67;0.90;;;18.00;99.90;;;;;;5034314;28;20426;-75
2022/09/16 08:08:06;;;;;;;1.80;1.17;;;18.20;99.90;;;;;;5033410;28;20418;-75
2022/09/16 08:10:31;;;;;;;1.97;1.00;;;18.30;99.90;;;;;;5034427;28;20454;-75
2022/09/16 08:12:57;;;;;;;3.37;1.40;;;18.30;99.90;;;;;;5034483;28;20171;-75
2022/09/16 08:15:22;;;;;;;3.87;0.90;;;18.40;99.90;;;;;;5034272;28;20187;-76
2022/09/16 08:17:48;;;;;;;2.40;1.10;;;18.50;99.90;;;;;;5034293;28;20174;-75
2022/09/16 08:20:14;;;;;;;1.40;0.80;;;18.50;99.90;;;;;;5034627;28;20600;-75
2022/09/16 08:22:40;;;;;;;1.83;0.93;;;18.50;99.90;;;;;;5034360;28;20172;-75
2022/09/16 08:25:06;;;;;;;3.30;1.47;;;18.40;99.90;;;;;;5033998;28;20431;-75
2022/09/16 08:27:35;;;;;;;3.30;1.47;;;18.60;99.90;;;;;;5034126;28;20238;-76
2022/09/16 08:30:00;;;;;;;1.83;1.17;;;18.70;99.90;;;;;;5034049;28;20195;-74
2022/09/16 08:32:26;;;;;;;1.20;0.80;;;18.90;99.90;;;;;;5034055;28;20414;-74
2022/09/16 08:34:52;;;;;;;2.20;1.00;;;19.30;99.90;;;;;;5032569;28;20266;-72
2022/09/16 08:37:18;;;;;;;1.10;0.63;;;19.80;99.90;;;;;;5032885;28;20176;-74
2022/09/16 08:39:45;;;;;;;1.60;0.90;;;20.00;99.90;;;;;;5032822;28;20648;-74
2022/09/16 08:42:35;;;;;;;3.40;0.87;;;20.10;99.90;;;;;;5033863;28;20409;-73
2022/09/16 08:45:41;;;;;;;1.60;1.00;;;20.10;99.90;;;;;;5033566;28;20472;-73
2022/09/16 08:48:21;;;;;;;1.47;0.93;;;20.10;99.90;;;;;;5033818;28;20512;-74
2022/09/16 08:50:48;;;;;;;3.30;1.60;;;20.10;99.90;;;;;;5033614;28;20496;-73
2022/09/16 08:53:40;;;;;;;3.07;1.90;;;20.30;99.90;;;;;;5033812;28;20497;-73
2022/09/16 08:56:11;;;;;;;1.30;0.80;;;20.70;99.90;;;;;;5032704;28;20798;-74
2022/09/16 08:58:47;;;;;;;1.87;1.00;;;20.90;99.90;;;;;;5033494;28;20445;-74
2022/09/16 09:01:41;;;;;;;6.63;1.07;;;21.60;99.90;;;;;;5033485;28;20417;-74
2022/09/16 09:04:07;;;;;;;3.00;2.13;;;23.70;99.90;;;;;;5032119;28;20418;-75
2022/09/16 09:07:01;;;;;;;1.73;1.10;;;25.90;95.20;;;;;;5032379;28;20426;-75
2022/09/16 09:09:58;;;;;;;1.20;0.90;;;27.60;77.40;;;;;;5033151;28;20191;-75
2022/09/16 09:13:04;;;;;;;1.17;0.80;;;28.50;65.10;;;;;;5033320;28;20406;-75
2022/09/16 09:15:38;;;;;;;2.17;0.80;;;29.40;57.50;;;;;;5033025;28;20426;-75
2022/09/16 09:18:35;;;;;;;5.37;1.93;;;30.00;56.20;;;;;;5033376;28;20405;-74
2022/09/16 09:21:15;;;;;;;2.03;1.20;;;30.80;52.60;;;;;;5033282;28;20918;-74
2022/09/16 09:23:50;;;;;;;1.20;0.80;;;30.10;50.90;;;;;;5033106;28;20408;-74
2022/09/16 09:26:20;;;;;;;4.03;1.00;;;29.10;51.60;;;;;;5032736;28;20425;-75
2022/09/16 09:29:07;;;;;;;1.60;0.90;;;28.00;52.00;;;;;;5032925;28;20406;-74
2022/09/16 09:32:00;;;;;;;2.63;1.20;;;27.10;54.00;;;;;;5033044;28;20505;-74
2022/09/16 09:34:48;;;;;;;4.30;1.40;;;25.90;55.90;;;;;;5032489;28;20544;-75
2022/09/16 09:38:07;;;;;;;3.00;1.10;;;24.80;58.60;;;;;;5032907;28;20984;-75
2022/09/16 09:40:57;;;;;;;1.33;0.80;;;23.90;60.00;;;;;;5030353;28;20418;-74
2022/09/16 09:43:34;;;;;;;1.77;0.90;;;22.80;63.20;;;;;;5033187;28;20987;-74
2022/09/16 09:46:25;;;;;;;3.00;1.17;;;22.10;69.90;;;;;;5032350;28;20519;-74
2022/09/16 09:49:10;;;;;;;1.20;0.80;;;21.50;74.10;;;;;;5032356;28;20410;-75
2022/09/16 09:51:52;;;;;;;1.30;0.90;;;21.50;78.80;;;;;;5032621;28;20426;-75
2022/09/16 09:54:33;;;;;;;1.67;0.90;;;22.30;88.40;;;;;;5032217;28;20445;-75
2022/09/16 09:57:04;;;;;;;3.43;0.90;;;24.60;78.50;;;;;;5032503;28;20422;-75
2022/09/16 09:59:38;;;;;;;1.90;0.97;;;26.90;66.60;;;;;;5032394;28;20413;-75
2022/09/16 10:02:15;;;;;;;3.80;1.20;;;28.00;58.20;;;;;;5032459;28;20414;-76
2022/09/16 10:04:41;;;;;;;1.23;0.97;;;29.90;54.80;;;;;;5032000;28;20437;-76
2022/09/16 10:07:07;;;;;;;3.80;1.40;;;30.50;50.60;;;;;;5032365;28;20410;-76
2022/09/16 10:09:34;;;;;;;2.57;1.00;;;31.40;50.90;;;;;;5032185;28;20454;-75
2022/09/16 10:12:00;;;;;;;1.83;1.07;;;32.70;45.10;;;;;;5032212;28;20398;-75
2022/09/16 10:14:34;;;;;;;3.13;1.00;;;32.20;44.20;;;;;;5031851;28;20410;-75
2022/09/16 10:17:12;;;;;;;1.97;1.07;;;32.00;44.10;;;;;;5030883;28;20414;-75
2022/09/16 10:19:54;;;;;;;2.80;0.97;;;30.70;44.10;;;;;;5030936;28;20509;-75
2022/09/16 10:22:28;;;;;;;1.60;0.80;;;29.60;47.60;;;;;;5032183;28;20429;-75
2022/09/16 10:25:21;;;;;;;2.43;1.20;;;30.30;46.50;;;;;;5031867;28;20432;-76
2022/09/16 10:27:57;;;;;;;1.97;0.80;;;31.60;44.60;;;;;;5032062;28;20442;-76
2022/09/16 10:30:22;;;;;;;1.70;1.37;;;32.70;43.30;;;;;;5030667;28;20464;-75
2022/09/16 10:33:09;;;;;;;1.60;1.13;;;34.20;43.00;;;;;;5031972;28;20410;-76
2022/09/16 10:35:37;;;;;;;1.30;1.00;;;35.70;40.50;;;;;;5031645;28;20179;-76
2022/09/16 10:38:12;;;;;;;1.43;1.00;;;36.30;38.70;;;;;;5031792;28;20497;-76
2022/09/16 10:40:49;;;;;;;1.60;1.10;;;37.00;35.70;;;;;;5031521;28;20797;-76
2022/09/16 10:43:15;;;;;;;2.03;1.00;;;37.50;34.90;;;;;;5031833;28;20413;-76
2022/09/16 10:45:46;;;;;;;1.93;1.03;;;36.60;33.20;;;;;;5031509;28;20525;-75
2022/09/16 10:48:18;;;;;;;1.53;1.00;;;34.70;35.50;;;;;;5031853;28;20410;-75
2022/09/16 10:51:01;;;;;;;1.60;0.90;;;33.40;37.40;;;;;;5031666;28;20523;-76
2022/09/16 10:53:37;;;;;;;2.37;1.00;;;31.50;38.50;;;;;;5031936;28;20884;-75
2022/09/16 10:56:05;;;;;;;3.87;0.90;;;29.50;40.10;;;;;;5031357;28;20791;-75
2022/09/16 10:58:31;;;;;;;2.30;1.20;;;27.50;43.80;;;;;;5030698;28;20923;-75
2022/09/16 11:01:12;;;;;;;1.77;1.10;;;26.40;46.00;;;;;;5031883;28;20406;-75
2022/09/16 11:04:05;;;;;;;3.63;0.90;;;25.70;47.60;;;;;;5031732;28;20412;-75
2022/09/16 11:06:34;;;;;;;1.77;0.80;;;26.50;48.30;;;;;;5031438;28;20426;-75
2022/09/16 11:09:21;;;;;;;2.20;0.80;;;27.50;47.20;;;;;;5031631;28;20417;-75
2022/09/16 11:12:04;;;;;;;1.80;0.90;;;28.30;45.10;;;;;;5031651;28;20398;-75
2022/09/16 11:14:59;;;;;;;3.60;1.10;;;27.80;45.20;;;;;;5031167;28;20469;-76
2022/09/16 11:17:33;;;;;;;2.40;1.23;;;28.10;46.20;;;;;;5032151;28;20957;-75
2022/09/16 11:20:08;;;;;;;2.80;1.00;;;29.00;43.00;;;;;;5031581;28;20433;-75
2022/09/16 11:22:59;;;;;;;2.50;1.00;;;28.90;43.20;;;;;;5031577;28;20893;-74
2022/09/16 11:25:34;;;;;;;1.37;1.00;;;28.50;43.40;;;;;;5031203;28;20426;-75
2022/09/16 11:27:59;;;;;;;1.33;0.90;;;27.50;43.80;;;;;;5031606;28;20410;-75
2022/09/16 11:30:29;;;;;;;1.77;0.90;;;27.90;46.20;;;;;;5033704;28;20784;-75
2022/09/16 11:33:32;;;;;;;1.30;0.97;;;29.50;44.20;;;;;;5035169;28;20672;-74
2022/09/16 11:36:05;;;;;;;1.00;0.80;;;31.70;42.20;;;;;;5034927;28;20425;-74
2022/09/16 11:38:49;;;;;;;2.27;1.20;;;33.10;38.60;;;;;;5035130;28;20745;-76
2022/09/16 11:41:28;;;;;;;3.00;1.00;;;32.70;37.30;;;;;;5035062;28;20802;-75
2022/09/16 11:44:22;;;;;;;2.40;0.87;;;30.90;38.70;;;;;;5035451;28;20397;-75
2022/09/16 11:47:15;;;;;;;1.27;0.70;;;29.00;40.50;;;;;;5034943;28;20430;-75
2022/09/16 11:49:50;;;;;;;1.50;0.77;;;27.50;43.40;;;;;;5035417;28;20868;-74
2022/09/16 11:52:15;;;;;;;2.20;1.13;;;26.10;45.00;;;;;;5074373;28;20439;-74
2022/09/16 11:55:11;;;;;;;3.47;0.90;;;25.40;46.70;;;;;;5097168;28;20443;-74
2022/09/16 11:57:42;;;;;;;1.67;0.80;;;24.70;47.80;;;;;;5076217;28;20193;-75
2022/09/16 12:00:15;;;;;;;1.30;0.80;;;24.00;48.90;;;;;;5066305;28;20433;-74
2022/09/16 12:02:56;;;;;;;1.60;0.70;;;23.60;50.90;;;;;;4985873;28;1031196;-74
2022/09/16 12:05:34;;;;;;;1.00;0.60;;;23.80;51.50;;;;;;5054322;28;20197;-75
2022/09/16 12:08:08;;;;;;;3.00;0.90;;;25.10;51.70;;;;;;5054632;28;20405;-73
2022/09/16 12:10:48;;;;;;;3.70;1.30;;;27.10;49.10;;;;;;5054418;28;20456;-73
2022/09/16 12:13:40;;;;;;;3.17;1.00;;;28.50;45.50;;;;;;5054259;28;20805;-73
2022/09/16 12:16:13;;;;;;;1.47;1.03;;;30.00;44.40;;;;;;5053962;28;20924;-75
2022/09/16 12:18:54;;;;;;;1.60;1.00;;;30.30;42.80;;;;;;5054161;28;20397;-75
2022/09/16 12:21:34;;;;;;;2.13;1.10;;;29.70;43.50;;;;;;5054134;28;20512;-76
2022/09/16 12:24:06;;;;;;;2.17;0.90;;;28.50;44.50;;;;;;5054149;28;20389;-75
2022/09/16 12:26:43;;;;;;;1.63;0.80;;;27.30;46.30;;;;;;5053943;28;20818;-75
2022/09/16 12:29:20;;;;;;;2.73;0.77;;;25.20;53.20;;;;;;5054032;28;20389;-75
2022/09/16 12:31:51;;;;;;;1.23;0.70;;;23.50;55.50;;;;;;5054135;28;20396;-75
2022/09/16 12:34:20;;;;;;;1.53;1.00;;;22.40;60.80;;;;;;5053806;28;20752;-75
2022/09/16 12:36:53;;;;;;;2.53;1.10;;;21.30;70.80;;;;;;5036180;28;20426;-75
2022/09/16 12:39:18;;;;;;;3.83;1.10;;;20.40;91.30;;;;;;5053989;28;21061;-74
2022/09/16 12:42:09;;;;;;;1.00;0.60;;;19.80;99.90;;;;;;5053162;28;20492;-74
2022/09/16 12:44:53;;;;;;;2.07;1.87;;;19.30;99.90;;;;;;5053770;28;20617;-74
2022/09/16 12:47:27;;;;;;;1.10;0.80;;;19.00;99.90;;;;;;5053965;28;20961;-74
2022/09/16 12:49:56;;;;;;;1.87;0.93;;;18.80;99.90;;;;;;5053813;28;20510;-74
2022/09/16 12:52:44;;;;;;;1.10;0.90;;;18.70;99.90;;;;;;5052775;28;20797;-74
2022/09/16 12:55:53;;;;;;;1.73;1.17;;;18.70;99.90;;;;;;5053905;28;20432;-74
2022/09/16 12:58:27;;;;;;;1.30;1.10;;;18.40;99.90;;;;;;4953370;29;20437;-72
2022/09/16 13:01:08;;;;;;;1.00;0.60;;;18.00;99.90;;;;;;5040128;28;20434;-73
2022/09/16 13:03:39;;;;;;;2.23;0.80;;;17.90;99.90;;;;;;5085559;28;20529;-73
2022/09/16 13:06:19;;;;;;;1.10;0.70;;;17.60;99.90;;;;;;5093180;28;20447;-73
2022/09/16 13:08:45;;;;;;;2.20;0.70;;;17.40;99.90;;;;;;5093777;28;20388;-75
2022/09/16 13:11:23;;;;;;;1.30;0.73;;;17.20;99.90;;;;;;5093539;28;20546;-74
2022/09/16 13:13:57;;;;;;;1.20;0.60;;;17.00;99.90;;;;;;5093511;28;20407;-75